Time;durP1;ratioP1;P1;durP2;ratioP2;P2;SDS_P1;SDS_P2;PMS_P1;PMS_P2;Temp;Humidity;BMP_temperature;BMP_pressure;BME280_temperature;BME280_humidity;BME280_pressure;Samples;Min_cycle;Max_cycle;Signal;HPM_P1;HPM_P2
2022/01/16 00:00:26;;;;;;;103.20;46.33;;;4.20;83.00;;;;;;5058572;28;20177;-88
2022/01/16 00:05:30;;;;;;;92.65;43.67;;;4.20;83.10;;;;;;5076728;28;20221;-88
2022/01/16 00:07:56;;;;;;;98.20;47.63;;;4.20;83.30;;;;;;5056062;28;20290;-88
2022/01/16 00:10:24;;;;;;;96.15;47.50;;;4.20;83.30;;;;;;5073665;28;20799;-88
2022/01/16 00:12:52;;;;;;;88.63;44.00;;;4.10;83.30;;;;;;5056193;28;20231;-89
2022/01/16 00:15:20;;;;;;;76.82;40.97;;;4.20;83.40;;;;;;5063086;28;20187;-89
2022/01/16 00:17:56;;;;;;;79.15;37.80;;;4.10;83.40;;;;;;5063273;28;20196;-89
2022/01/16 00:20:24;;;;;;;83.15;41.22;;;4.20;83.40;;;;;;5062171;28;20168;-88
2022/01/16 00:22:51;;;;;;;93.80;40.15;;;4.30;83.40;;;;;;5055962;28;20640;-88
2022/01/16 00:25:18;;;;;;;80.68;37.42;;;4.10;83.40;;;;;;5056400;28;20204;-87
2022/01/16 00:27:44;;;;;;;92.72;41.17;;;4.10;83.50;;;;;;5056110;28;20232;-87
2022/01/16 00:30:11;;;;;;;79.67;40.23;;;4.00;83.50;;;;;;5056341;28;20623;-87
2022/01/16 00:32:37;;;;;;;91.60;40.00;;;4.00;83.60;;;;;;5055832;28;20821;-86
2022/01/16 00:35:04;;;;;;;96.23;38.90;;;4.00;83.70;;;;;;5056159;28;20176;-87
2022/01/16 00:37:30;;;;;;;86.70;40.05;;;4.10;83.80;;;;;;5056138;28;20231;-87
2022/01/16 00:39:56;;;;;;;78.30;39.27;;;4.10;83.90;;;;;;5056197;28;20191;-87
2022/01/16 00:42:21;;;;;;;76.63;36.92;;;4.10;83.80;;;;;;5057051;28;20789;-87
2022/01/16 00:44:47;;;;;;;90.87;40.40;;;4.00;83.70;;;;;;5055218;28;20184;-88
2022/01/16 00:47:13;;;;;;;86.80;38.77;;;4.00;83.70;;;;;;5055832;28;20236;-88
2022/01/16 00:49:39;;;;;;;81.50;37.37;;;4.00;83.80;;;;;;5055350;28;20445;-87
2022/01/16 00:52:10;;;;;;;85.78;38.33;;;4.00;83.80;;;;;;5056178;28;20193;-87
2022/01/16 00:54:36;;;;;;;86.60;38.08;;;4.00;83.80;;;;;;5056556;28;20176;-87
2022/01/16 00:57:03;;;;;;;90.38;40.05;;;4.00;83.80;;;;;;5056149;28;20196;-87
2022/01/16 00:59:28;;;;;;;86.60;37.95;;;3.90;83.90;;;;;;5055677;28;20204;-88
2022/01/16 01:01:54;;;;;;;91.17;40.53;;;3.90;84.00;;;;;;5056247;28;20234;-87
2022/01/16 01:04:20;;;;;;;76.97;37.10;;;3.90;84.20;;;;;;5055700;28;20173;-87
2022/01/16 01:06:50;;;;;;;92.57;40.33;;;4.10;84.20;;;;;;5055699;28;20212;-87
2022/01/16 01:09:16;;;;;;;75.47;37.60;;;4.10;84.00;;;;;;5039720;28;20185;-86
2022/01/16 01:11:45;;;;;;;93.00;41.53;;;4.00;83.90;;;;;;5037030;28;20696;-86
2022/01/16 01:14:26;;;;;;;82.70;39.05;;;4.00;83.90;;;;;;5037042;28;20177;-86
2022/01/16 01:17:00;;;;;;;82.50;38.20;;;4.10;84.00;;;;;;5037599;28;20296;-87
2022/01/16 01:19:33;;;;;;;72.47;38.10;;;4.10;83.90;;;;;;5036406;28;20256;-87
2022/01/16 01:22:00;;;;;;;79.20;38.47;;;4.00;84.10;;;;;;5047355;28;20188;-87
2022/01/16 01:24:27;;;;;;;76.15;38.20;;;4.00;84.20;;;;;;5073056;28;20183;-87
2022/01/16 01:27:09;;;;;;;86.13;37.83;;;4.00;84.20;;;;;;5038199;28;20255;-87
2022/01/16 01:29:36;;;;;;;84.90;35.70;;;4.10;84.30;;;;;;5056151;28;20169;-87
2022/01/16 01:32:02;;;;;;;76.53;37.35;;;4.10;84.40;;;;;;5038432;28;20350;-87
2022/01/16 01:34:27;;;;;;;80.32;37.38;;;4.20;84.30;;;;;;5054978;28;20175;-87
2022/01/16 01:36:53;;;;;;;76.67;35.67;;;4.20;85.00;;;;;;5050307;28;20284;-87
2022/01/16 01:39:21;;;;;;;78.60;35.60;;;4.30;84.40;;;;;;5055319;28;20439;-87
2022/01/16 01:41:50;;;;;;;77.75;36.78;;;4.30;84.00;;;;;;5054378;28;20243;-87
2022/01/16 01:52:34;;;;;;;79.03;34.53;;;4.30;83.70;;;;;;5089618;28;20196;-88
2022/01/16 01:55:00;;;;;;;64.57;34.10;;;4.40;83.60;;;;;;5060076;28;20175;-88
2022/01/16 01:57:26;;;;;;;62.97;31.05;;;4.50;83.60;;;;;;5059646;28;20192;-86
2022/01/16 01:59:52;;;;;;;77.03;35.47;;;4.50;83.50;;;;;;5041680;28;20188;-88
2022/01/16 02:02:18;;;;;;;71.23;34.43;;;4.60;83.40;;;;;;5040073;28;20181;-88
2022/01/16 02:04:43;;;;;;;69.83;34.17;;;4.50;83.30;;;;;;5039877;28;20185;-88
2022/01/16 02:07:09;;;;;;;74.87;34.80;;;4.50;83.30;;;;;;5039167;28;20451;-88
2022/01/16 02:09:37;;;;;;;78.17;36.90;;;4.70;83.40;;;;;;5058202;28;20170;-88
2022/01/16 02:12:03;;;;;;;69.20;33.35;;;4.60;83.00;;;;;;5041755;28;20201;-88
2022/01/16 02:28:13;;;;;;;75.68;33.42;;;4.90;82.70;;;;;;5056823;28;20715;-88
2022/01/16 02:33:25;;;;;;;71.93;33.88;;;5.10;82.20;;;;;;5057558;28;20212;-88
2022/01/16 02:35:54;;;;;;;58.10;31.00;;;5.10;82.00;;;;;;5057440;28;20176;-89
2022/01/16 02:38:21;;;;;;;63.53;30.88;;;5.20;81.80;;;;;;5038832;28;20185;-88
2022/01/16 02:40:54;;;;;;;64.20;32.03;;;5.20;81.70;;;;;;5038361;28;20181;-88
2022/01/16 02:43:28;;;;;;;67.72;32.67;;;5.10;81.60;;;;;;5055619;28;20613;-88
2022/01/16 02:46:09;;;;;;;56.70;29.60;;;5.30;81.50;;;;;;5037767;28;20173;-88
2022/01/16 02:48:35;;;;;;;57.38;29.75;;;5.20;81.30;;;;;;5038081;28;20181;-88
2022/01/16 02:51:01;;;;;;;67.37;33.77;;;5.10;81.40;;;;;;5037939;28;20174;-88
2022/01/16 02:53:26;;;;;;;56.83;32.07;;;5.10;81.40;;;;;;5056705;28;20477;-89
2022/01/16 02:55:53;;;;;;;71.47;34.70;;;5.20;81.20;;;;;;5057120;28;20257;-88
2022/01/16 02:58:18;;;;;;;80.85;36.13;;;5.20;81.20;;;;;;5057815;28;20215;-88
2022/01/16 03:00:44;;;;;;;78.30;36.07;;;5.20;81.10;;;;;;5057833;28;20185;-88
2022/01/16 03:03:10;;;;;;;61.90;31.37;;;5.00;81.10;;;;;;5057425;28;20184;-88
2022/01/16 03:05:36;;;;;;;67.77;32.20;;;4.90;81.50;;;;;;5057352;28;20211;-88
2022/01/16 03:08:04;;;;;;;65.10;31.73;;;5.00;81.70;;;;;;5051969;28;20232;-88
2022/01/16 03:13:15;;;;;;;69.40;31.52;;;5.00;81.70;;;;;;5055236;28;20586;-88
2022/01/16 03:15:41;;;;;;;53.67;30.10;;;5.20;81.70;;;;;;5055435;28;20638;-88
2022/01/16 03:23:21;;;;;;;85.03;32.92;;;5.40;81.30;;;;;;5055500;28;20400;-88
2022/01/16 03:25:48;;;;;;;66.90;31.08;;;5.40;81.00;;;;;;5054941;28;20188;-88
2022/01/16 03:28:14;;;;;;;76.72;34.22;;;5.30;80.90;;;;;;5063976;28;20176;-88
2022/01/16 03:30:41;;;;;;;68.13;31.73;;;5.20;81.00;;;;;;5079824;28;20232;-88
2022/01/16 03:33:06;;;;;;;68.43;32.13;;;5.10;81.20;;;;;;5088946;28;20294;-88
2022/01/16 03:35:33;;;;;;;64.95;29.08;;;5.10;81.50;;;;;;5063836;28;20222;-88
2022/01/16 03:37:59;;;;;;;65.65;32.63;;;5.10;81.60;;;;;;5058137;28;20241;-88
2022/01/16 03:40:25;;;;;;;63.77;32.63;;;5.10;81.50;;;;;;5057653;28;20271;-88
2022/01/16 03:42:51;;;;;;;64.83;31.30;;;5.00;81.60;;;;;;5057407;28;20264;-88
2022/01/16 03:45:17;;;;;;;67.88;32.33;;;5.00;81.80;;;;;;5056140;28;20204;-88
2022/01/16 03:47:43;;;;;;;65.63;33.83;;;5.00;82.00;;;;;;5073046;28;20627;-87
2022/01/16 03:50:10;;;;;;;67.10;33.63;;;5.00;82.20;;;;;;5044536;28;20432;-87
2022/01/16 03:52:36;;;;;;;74.90;36.05;;;5.00;82.20;;;;;;5037173;28;20596;-88
2022/01/16 03:55:03;;;;;;;72.07;32.80;;;4.90;82.40;;;;;;5054712;28;20173;-87
2022/01/16 03:57:29;;;;;;;70.90;34.70;;;5.10;82.50;;;;;;5037533;28;20247;-88
2022/01/16 03:59:55;;;;;;;81.80;35.50;;;5.10;82.20;;;;;;5038701;28;20652;-88
2022/01/16 04:02:21;;;;;;;65.25;33.33;;;5.30;82.20;;;;;;5039244;28;20181;-88
2022/01/16 04:04:47;;;;;;;64.23;32.40;;;5.40;82.00;;;;;;5036313;28;20177;-88
2022/01/16 04:07:18;;;;;;;70.40;31.53;;;5.60;81.60;;;;;;5053607;28;20811;-87
2022/01/16 04:09:44;;;;;;;72.78;31.63;;;5.60;81.40;;;;;;5054656;28;20832;-87
2022/01/16 04:12:11;;;;;;;69.63;35.07;;;5.50;81.20;;;;;;5036930;28;20737;-87
2022/01/16 04:17:22;;;;;;;65.45;30.58;;;5.70;80.80;;;;;;5058711;28;20280;-87
2022/01/16 04:19:49;;;;;;;70.43;32.65;;;5.80;80.30;;;;;;5036382;28;20165;-88
2022/01/16 04:22:15;;;;;;;52.00;29.45;;;5.70;80.10;;;;;;5050123;28;20180;-87
2022/01/16 04:24:41;;;;;;;73.68;32.45;;;5.60;80.30;;;;;;5056696;28;20181;-88
2022/01/16 04:27:10;;;;;;;64.97;31.27;;;5.60;80.50;;;;;;5056867;28;20204;-88
2022/01/16 04:29:36;;;;;;;57.70;30.67;;;5.50;80.70;;;;;;5056602;28;20423;-87
2022/01/16 04:32:01;;;;;;;68.27;31.93;;;5.50;80.80;;;;;;5054800;28;20203;-87
2022/01/16 04:34:27;;;;;;;59.77;31.40;;;5.50;80.90;;;;;;5056293;28;20414;-87
2022/01/16 04:36:53;;;;;;;74.70;32.60;;;5.40;81.00;;;;;;5056452;28;21073;-87
2022/01/16 04:39:21;;;;;;;70.43;33.77;;;5.30;81.40;;;;;;5056627;28;21028;-87
2022/01/16 04:44:32;;;;;;;72.82;30.75;;;5.10;81.90;;;;;;5073320;28;20176;-87
2022/01/16 04:46:58;;;;;;;72.57;30.88;;;5.10;82.20;;;;;;5073622;28;20189;-87
2022/01/16 04:49:24;;;;;;;61.83;32.42;;;5.10;82.40;;;;;;5055496;28;20244;-87
2022/01/16 04:51:50;;;;;;;64.53;29.07;;;5.30;82.40;;;;;;5073829;28;20286;-87
2022/01/16 04:54:15;;;;;;;63.70;32.00;;;5.30;82.30;;;;;;5038858;28;21077;-87
2022/01/16 04:56:41;;;;;;;70.43;32.90;;;5.20;82.30;;;;;;5046267;28;20189;-87
2022/01/16 04:59:07;;;;;;;70.37;31.43;;;5.30;82.40;;;;;;5067560;28;20641;-88
2022/01/16 05:01:33;;;;;;;76.57;32.27;;;5.20;82.30;;;;;;5035394;28;20185;-87
2022/01/16 05:03:59;;;;;;;63.28;29.90;;;5.20;82.50;;;;;;5047565;28;20180;-87
2022/01/16 05:06:25;;;;;;;65.77;30.20;;;5.20;82.50;;;;;;5055129;28;20197;-88
2022/01/16 05:08:51;;;;;;;64.20;33.70;;;5.10;82.50;;;;;;5051072;28;20469;-87
2022/01/16 05:11:22;;;;;;;69.87;30.97;;;5.10;82.70;;;;;;5049599;28;20484;-88
2022/01/16 05:18:58;;;;;;;70.40;29.88;;;5.30;82.40;;;;;;5059524;28;20184;-88
2022/01/16 05:21:24;;;;;;;62.13;28.83;;;5.20;82.20;;;;;;5052113;28;20645;-87
2022/01/16 05:23:50;;;;;;;69.45;31.88;;;5.10;82.20;;;;;;5052189;28;20181;-88
2022/01/16 05:26:26;;;;;;;68.70;31.00;;;5.00;82.10;;;;;;5052530;28;20207;-88
2022/01/16 05:28:52;;;;;;;69.72;29.30;;;4.90;82.40;;;;;;5071449;28;20406;-87
2022/01/16 05:31:17;;;;;;;65.10;29.20;;;5.10;82.50;;;;;;5063956;28;20244;-87
2022/01/16 05:33:43;;;;;;;63.40;29.10;;;5.20;82.30;;;;;;5057093;28;20446;-87
2022/01/16 05:36:09;;;;;;;70.53;30.37;;;5.40;82.30;;;;;;5048446;28;20200;-88
2022/01/16 05:38:35;;;;;;;67.27;30.17;;;5.30;82.10;;;;;;5052635;28;20418;-88
2022/01/16 05:41:01;;;;;;;71.13;29.37;;;5.30;82.20;;;;;;5076101;28;20525;-87
2022/01/16 05:43:26;;;;;;;77.20;30.40;;;5.30;82.20;;;;;;5048430;28;20649;-87
2022/01/16 05:45:52;;;;;;;70.50;27.23;;;5.30;82.10;;;;;;5041216;28;20430;-88
2022/01/16 05:48:18;;;;;;;66.40;27.53;;;5.30;82.10;;;;;;5042106;28;20862;-86
2022/01/16 05:50:44;;;;;;;60.20;28.27;;;5.30;82.10;;;;;;5059499;28;20438;-87
2022/01/16 05:53:09;;;;;;;59.53;26.80;;;5.30;82.00;;;;;;5039749;28;20580;-87
2022/01/16 05:55:38;;;;;;;73.03;29.33;;;5.20;82.00;;;;;;5056295;28;20716;-87
2022/01/16 05:58:05;;;;;;;69.60;29.08;;;5.30;82.10;;;;;;5040392;28;20685;-87
2022/01/16 06:00:31;;;;;;;70.75;29.55;;;5.50;82.00;;;;;;5068152;28;20180;-87
2022/01/16 06:02:57;;;;;;;64.60;28.15;;;5.40;81.50;;;;;;5053888;28;20242;-87
2022/01/16 06:05:23;;;;;;;64.72;28.85;;;5.40;81.40;;;;;;5037475;28;20181;-87
2022/01/16 06:07:56;;;;;;;63.67;27.57;;;5.50;81.60;;;;;;5052851;28;20211;-87
2022/01/16 06:10:22;;;;;;;66.15;28.55;;;5.50;81.50;;;;;;5053476;28;20175;-86
2022/01/16 06:12:48;;;;;;;62.08;30.45;;;5.30;81.60;;;;;;5056925;28;20208;-86
2022/01/16 06:15:14;;;;;;;53.10;27.50;;;5.10;81.80;;;;;;5046010;28;20172;-86
2022/01/16 06:17:39;;;;;;;61.20;27.20;;;5.20;82.00;;;;;;5045226;28;20193;-87
2022/01/16 06:20:06;;;;;;;74.30;29.30;;;5.10;82.20;;;;;;5035276;28;20177;-87
2022/01/16 06:22:32;;;;;;;80.30;30.45;;;5.10;82.30;;;;;;5043410;28;20448;-87
2022/01/16 06:24:58;;;;;;;79.13;30.03;;;5.20;82.30;;;;;;5053337;28;20181;-87
2022/01/16 06:27:23;;;;;;;71.70;28.43;;;5.20;82.40;;;;;;5036424;28;20262;-87
2022/01/16 06:29:49;;;;;;;64.87;31.43;;;5.10;82.50;;;;;;5041764;28;20177;-87
2022/01/16 06:32:15;;;;;;;75.37;29.03;;;5.10;82.40;;;;;;5051053;28;20228;-87
2022/01/16 06:34:40;;;;;;;75.37;29.87;;;5.00;82.70;;;;;;5042201;28;20177;-87
2022/01/16 06:37:06;;;;;;;69.43;28.57;;;5.10;82.90;;;;;;5045996;28;20220;-87
2022/01/16 06:39:32;;;;;;;70.87;29.57;;;5.20;82.90;;;;;;5045980;28;20716;-87
2022/01/16 06:42:04;;;;;;;83.10;29.83;;;5.20;82.80;;;;;;5075873;28;20177;-87
2022/01/16 06:44:29;;;;;;;83.20;30.70;;;5.30;82.90;;;;;;5042172;28;20431;-87
2022/01/16 06:46:55;;;;;;;69.90;30.50;;;5.30;82.80;;;;;;5054018;28;20201;-87
2022/01/16 06:49:21;;;;;;;70.13;29.87;;;5.10;82.70;;;;;;5071713;28;20259;-87
2022/01/16 06:51:46;;;;;;;71.03;29.40;;;5.10;83.00;;;;;;5064702;28;20207;-87
2022/01/16 06:54:12;;;;;;;80.37;30.30;;;5.10;83.20;;;;;;5051235;28;20174;-87
2022/01/16 06:56:38;;;;;;;77.30;32.70;;;5.20;83.30;;;;;;5054463;28;20283;-87
2022/01/16 06:59:04;;;;;;;74.77;30.53;;;5.20;83.30;;;;;;5057617;28;20173;-87
2022/01/16 07:01:30;;;;;;;89.38;32.67;;;5.10;83.50;;;;;;5051879;28;20271;-86
2022/01/16 07:03:56;;;;;;;73.93;30.40;;;5.00;83.70;;;;;;5048039;28;20227;-87
2022/01/16 07:06:22;;;;;;;89.37;33.37;;;5.10;84.10;;;;;;5055616;28;20436;-87
2022/01/16 07:08:49;;;;;;;73.40;32.30;;;5.10;84.10;;;;;;5037675;28;20219;-87
2022/01/16 07:11:15;;;;;;;73.45;31.42;;;5.30;84.00;;;;;;5037785;28;20277;-88
2022/01/16 07:13:41;;;;;;;85.30;31.67;;;5.30;83.80;;;;;;5037593;28;20208;-87
2022/01/16 07:16:07;;;;;;;63.83;28.13;;;5.20;83.90;;;;;;5037915;28;20201;-87
2022/01/16 07:18:33;;;;;;;90.93;31.57;;;5.00;84.20;;;;;;5046770;28;20574;-86
2022/01/16 07:20:58;;;;;;;80.70;31.90;;;5.10;84.70;;;;;;5054823;28;20486;-89
2022/01/16 07:23:24;;;;;;;96.33;33.03;;;5.00;84.80;;;;;;5065800;28;20807;-86
2022/01/16 07:25:52;;;;;;;77.33;28.77;;;5.20;85.00;;;;;;5058790;28;20434;-86
2022/01/16 07:28:18;;;;;;;86.32;32.75;;;5.10;85.00;;;;;;5050013;28;20434;-86
2022/01/16 07:30:44;;;;;;;78.47;31.15;;;5.20;85.10;;;;;;5044535;28;20189;-86
2022/01/16 07:33:10;;;;;;;87.17;31.10;;;5.10;85.10;;;;;;5039422;28;20288;-86
2022/01/16 07:35:36;;;;;;;80.05;32.55;;;5.10;85.30;;;;;;5062950;28;20168;-86
2022/01/16 07:38:05;;;;;;;78.85;30.88;;;5.10;85.50;;;;;;5062959;28;20688;-86
2022/01/16 07:40:31;;;;;;;90.30;33.90;;;5.10;85.70;;;;;;5056837;28;20250;-86
2022/01/16 07:42:59;;;;;;;91.83;32.87;;;5.00;85.80;;;;;;5056461;28;20188;-86
2022/01/16 07:45:25;;;;;;;91.97;30.98;;;5.20;86.10;;;;;;5046553;28;21005;-86
2022/01/16 07:47:51;;;;;;;83.07;29.45;;;5.30;85.70;;;;;;5043788;28;20196;-88
2022/01/16 07:50:17;;;;;;;79.15;31.52;;;5.20;85.70;;;;;;5049290;28;20609;-89
2022/01/16 07:52:44;;;;;;;78.03;30.05;;;5.20;85.80;;;;;;5072539;28;20236;-88
2022/01/16 07:55:10;;;;;;;82.18;30.38;;;5.10;85.90;;;;;;5057523;28;20172;-88
2022/01/16 07:57:36;;;;;;;98.45;30.77;;;5.10;86.10;;;;;;5043159;28;20724;-88
2022/01/16 08:00:03;;;;;;;73.27;29.10;;;5.10;86.30;;;;;;5051603;28;20166;-88
2022/01/16 08:02:29;;;;;;;93.57;30.90;;;5.20;86.30;;;;;;5055163;28;20915;-88
2022/01/16 08:04:55;;;;;;;94.40;30.23;;;5.40;86.20;;;;;;5058063;28;20220;-88
2022/01/16 08:07:20;;;;;;;90.33;31.40;;;5.30;86.20;;;;;;5045625;28;20209;-88
2022/01/16 08:09:47;;;;;;;94.10;32.03;;;5.30;86.30;;;;;;5051854;28;20506;-88
2022/01/16 08:12:14;;;;;;;74.38;28.50;;;5.30;86.30;;;;;;5043005;28;20197;-85
2022/01/16 08:14:40;;;;;;;83.13;30.83;;;5.30;86.40;;;;;;5056121;28;20203;-86
2022/01/16 08:17:06;;;;;;;84.18;30.75;;;5.40;86.30;;;;;;5076614;28;20192;-86
2022/01/16 08:19:32;;;;;;;78.07;31.07;;;5.50;86.40;;;;;;5058492;28;20173;-86
2022/01/16 08:21:57;;;;;;;81.00;30.07;;;5.40;86.20;;;;;;5046042;28;20498;-87
2022/01/16 08:24:24;;;;;;;80.80;32.57;;;5.50;86.20;;;;;;5042756;28;20636;-86
2022/01/16 08:26:57;;;;;;;70.28;29.00;;;5.70;86.00;;;;;;5067632;28;20434;-86
2022/01/16 08:29:23;;;;;;;77.63;30.42;;;5.60;85.70;;;;;;5051286;28;20173;-86
2022/01/16 08:31:48;;;;;;;86.00;32.20;;;5.60;85.70;;;;;;5054321;28;20246;-86
2022/01/16 08:34:14;;;;;;;73.40;30.40;;;5.70;85.60;;;;;;5038035;28;20177;-86
2022/01/16 08:36:40;;;;;;;76.90;29.77;;;5.70;85.40;;;;;;5056695;28;20196;-86
2022/01/16 08:39:05;;;;;;;78.97;31.27;;;5.70;85.40;;;;;;5051314;28;20556;-87
2022/01/16 08:41:32;;;;;;;72.73;28.53;;;5.80;85.20;;;;;;5056257;28;20543;-87
2022/01/16 08:43:58;;;;;;;79.45;28.33;;;6.00;85.00;;;;;;5050078;28;20285;-87
2022/01/16 08:46:24;;;;;;;77.43;28.15;;;5.80;84.50;;;;;;5053197;28;20227;-88
2022/01/16 08:48:51;;;;;;;70.88;29.45;;;6.00;84.40;;;;;;5043847;28;20223;-88
2022/01/16 08:51:17;;;;;;;72.90;28.08;;;5.90;84.00;;;;;;5055072;28;20181;-88
2022/01/16 08:53:45;;;;;;;90.60;31.37;;;5.80;84.00;;;;;;5035446;28;20204;-88
2022/01/16 08:56:12;;;;;;;62.00;27.45;;;5.90;84.10;;;;;;5049728;28;20430;-88
2022/01/16 08:58:37;;;;;;;66.72;26.92;;;5.80;84.10;;;;;;5053825;28;20176;-87
2022/01/16 09:01:03;;;;;;;72.90;27.47;;;5.80;84.20;;;;;;5036021;28;20183;-88
2022/01/16 09:03:28;;;;;;;81.23;30.70;;;6.10;84.30;;;;;;5053137;28;20548;-87
2022/01/16 09:05:54;;;;;;;68.40;29.27;;;6.00;83.90;;;;;;5047414;28;20172;-87
2022/01/16 09:08:20;;;;;;;78.00;29.07;;;6.10;83.90;;;;;;5049308;28;20287;-88
2022/01/16 09:10:46;;;;;;;73.17;31.20;;;6.30;83.90;;;;;;5037486;28;20180;-88
2022/01/16 09:13:15;;;;;;;81.03;30.90;;;6.40;83.60;;;;;;5048784;28;20216;-88
2022/01/16 09:15:47;;;;;;;71.30;30.52;;;6.60;83.00;;;;;;5071624;28;20172;-88
2022/01/16 09:18:13;;;;;;;71.22;29.75;;;6.40;82.40;;;;;;5057603;28;20271;-88
2022/01/16 09:20:39;;;;;;;74.25;29.08;;;6.50;82.50;;;;;;5057408;28;20176;-88
2022/01/16 09:23:06;;;;;;;85.60;30.85;;;6.60;82.00;;;;;;5050021;28;20189;-88
2022/01/16 09:25:31;;;;;;;77.57;30.95;;;6.60;81.70;;;;;;5048304;28;20272;-87
2022/01/16 09:27:59;;;;;;;78.60;29.37;;;6.70;81.50;;;;;;5049299;28;20220;-87
2022/01/16 09:30:25;;;;;;;74.53;32.78;;;6.60;81.40;;;;;;5073197;28;20913;-86
2022/01/16 09:32:51;;;;;;;76.10;28.80;;;6.70;81.20;;;;;;5057708;28;20204;-86
2022/01/16 09:35:17;;;;;;;69.50;29.95;;;6.70;81.30;;;;;;5061848;28;20177;-86
2022/01/16 09:37:51;;;;;;;73.13;30.60;;;6.90;81.00;;;;;;5035732;28;20623;-86
2022/01/16 09:40:19;;;;;;;76.93;29.35;;;6.70;80.50;;;;;;5036002;28;20551;-87
2022/01/16 09:42:46;;;;;;;84.05;31.38;;;6.60;80.60;;;;;;5036797;28;20192;-86
2022/01/16 09:45:19;;;;;;;82.57;27.85;;;6.70;80.70;;;;;;5056378;28;20533;-86
2022/01/16 09:47:47;;;;;;;72.70;26.73;;;6.70;80.40;;;;;;5050095;28;20290;-86
2022/01/16 09:50:19;;;;;;;64.97;26.77;;;6.70;80.50;;;;;;5068566;28;20176;-86
2022/01/16 09:52:46;;;;;;;61.33;26.13;;;6.80;80.30;;;;;;5045863;28;20270;-87
2022/01/16 09:55:13;;;;;;;57.95;24.33;;;6.80;80.10;;;;;;5046663;28;20169;-87
2022/01/16 09:57:39;;;;;;;63.30;24.08;;;6.90;79.80;;;;;;5057284;28;20231;-87
2022/01/16 10:00:09;;;;;;;56.20;24.02;;;6.90;79.70;;;;;;5058180;28;20593;-87
2022/01/16 10:02:34;;;;;;;49.85;24.98;;;6.90;79.50;;;;;;5056627;28;20188;-87
2022/01/16 10:05:00;;;;;;;65.87;25.57;;;6.80;79.50;;;;;;5082267;28;20610;-87
2022/01/16 10:07:26;;;;;;;54.90;24.37;;;6.90;79.70;;;;;;5082688;28;20726;-88
2022/01/16 10:10:11;;;;;;;57.97;24.03;;;6.80;79.60;;;;;;5094351;28;20440;-87
2022/01/16 10:12:45;;;;;;;55.85;23.80;;;6.70;79.70;;;;;;5069979;28;20814;-87
2022/01/16 10:15:20;;;;;;;69.07;24.85;;;6.90;79.70;;;;;;5059375;28;20805;-87
2022/01/16 10:17:52;;;;;;;60.92;23.40;;;6.70;79.00;;;;;;5077321;28;20294;-87
2022/01/16 10:20:18;;;;;;;46.25;22.08;;;6.70;79.40;;;;;;5077320;28;20176;-88
2022/01/16 10:22:50;;;;;;;43.45;20.13;;;6.70;79.60;;;;;;5077331;28;20668;-87
2022/01/16 10:25:34;;;;;;;59.85;21.30;;;6.80;79.90;;;;;;5077096;28;20579;-86
2022/01/16 10:28:04;;;;;;;52.80;23.23;;;6.90;79.80;;;;;;5059088;28;20196;-87
2022/01/16 10:30:53;;;;;;;49.72;23.48;;;6.90;79.50;;;;;;5059050;28;20271;-86
2022/01/16 10:33:22;;;;;;;60.63;22.17;;;6.80;79.60;;;;;;5049691;28;20196;-90
2022/01/16 10:35:50;;;;;;;54.80;24.60;;;6.50;79.80;;;;;;5062546;28;20180;-89
2022/01/16 10:38:22;;;;;;;51.03;20.27;;;6.50;80.30;;;;;;5060819;28;20703;-87
2022/01/16 10:40:50;;;;;;;55.85;23.75;;;6.80;80.40;;;;;;5065639;28;20181;-88
2022/01/16 10:43:42;;;;;;;58.90;24.17;;;6.70;80.40;;;;;;5059499;28;20176;-88
2022/01/16 10:46:10;;;;;;;51.00;23.80;;;6.90;80.10;;;;;;5040076;28;20197;-86
2022/01/16 10:48:35;;;;;;;50.95;24.13;;;6.80;80.10;;;;;;5040994;28;20258;-87
2022/01/16 10:51:01;;;;;;;56.23;22.50;;;6.50;80.70;;;;;;5041069;28;20182;-87
2022/01/16 10:53:32;;;;;;;54.78;24.00;;;6.50;81.50;;;;;;5043222;28;20805;-86
2022/01/16 10:56:03;;;;;;;54.00;22.45;;;6.60;81.70;;;;;;5039891;28;20169;-87
2022/01/16 10:58:41;;;;;;;51.08;23.33;;;6.70;81.50;;;;;;5047004;28;20184;-88
2022/01/16 11:01:14;;;;;;;49.95;22.27;;;6.60;81.40;;;;;;5063420;28;20180;-89
2022/01/16 11:03:46;;;;;;;45.80;21.52;;;6.80;81.30;;;;;;5057062;28;20263;-88
2022/01/16 11:06:13;;;;;;;44.55;21.48;;;6.90;81.20;;;;;;5052013;28;20260;-88
2022/01/16 11:08:39;;;;;;;41.53;21.85;;;7.20;81.00;;;;;;5061200;28;20177;-87
2022/01/16 11:11:07;;;;;;;53.65;23.15;;;7.30;80.40;;;;;;5074065;28;20176;-87
2022/01/16 11:13:35;;;;;;;48.72;23.88;;;7.10;79.80;;;;;;5060685;28;20212;-87
2022/01/16 11:16:05;;;;;;;54.00;22.38;;;7.10;79.60;;;;;;5059368;28;20176;-87
2022/01/16 11:18:38;;;;;;;48.67;22.05;;;7.20;79.40;;;;;;5062646;28;20600;-88
2022/01/16 11:24:00;;;;;;;43.03;21.42;;;7.20;78.80;;;;;;5065553;28;20244;-88
2022/01/16 11:26:27;;;;;;;42.85;21.05;;;7.10;79.10;;;;;;5029521;28;20213;-87
2022/01/16 11:28:55;;;;;;;45.83;23.63;;;7.30;79.20;;;;;;5042315;28;20173;-88
2022/01/16 11:31:21;;;;;;;43.20;21.50;;;7.30;78.50;;;;;;5041094;28;20264;-88
2022/01/16 11:33:47;;;;;;;50.00;21.75;;;7.20;78.60;;;;;;5040060;28;20173;-87
2022/01/16 11:36:21;;;;;;;38.30;20.60;;;7.10;79.60;;;;;;5039971;28;20280;-88
2022/01/16 11:38:55;;;;;;;51.90;23.33;;;7.10;79.20;;;;;;5039437;28;20524;-88
2022/01/16 11:41:33;;;;;;;44.97;21.75;;;6.80;79.10;;;;;;5040005;28;20185;-88
2022/01/16 11:44:06;;;;;;;52.55;22.67;;;7.00;79.20;;;;;;5039500;28;20197;-86
2022/01/16 11:46:34;;;;;;;49.05;24.23;;;7.10;79.40;;;;;;5046359;28;20228;-86
2022/01/16 11:49:04;;;;;;;47.92;23.85;;;7.10;79.00;;;;;;5057461;28;20173;-86
2022/01/16 11:51:38;;;;;;;50.85;23.27;;;7.00;79.10;;;;;;5046395;28;20173;-86
2022/01/16 11:54:15;;;;;;;48.88;24.02;;;7.00;79.80;;;;;;5037605;28;20197;-87
2022/01/16 11:56:41;;;;;;;44.58;20.95;;;7.00;80.20;;;;;;5055418;28;20194;-87
2022/01/16 11:59:20;;;;;;;44.37;21.70;;;6.80;80.70;;;;;;5037783;28;20179;-87
2022/01/16 12:01:56;;;;;;;45.50;22.95;;;6.90;80.90;;;;;;5038140;28;20169;-88
2022/01/16 12:04:31;;;;;;;48.70;24.08;;;6.90;80.90;;;;;;5043363;28;20542;-87
2022/01/16 12:07:12;;;;;;;49.63;23.00;;;6.80;81.00;;;;;;5037632;28;20307;-87
2022/01/16 12:12:12;;;;;;;42.03;22.13;;;7.10;80.50;;;;;;5056590;28;20724;-87
2022/01/16 12:15:01;;;;;;;52.95;24.48;;;7.10;80.30;;;;;;5037529;28;20188;-87
2022/01/16 12:17:43;;;;;;;49.78;24.08;;;6.90;80.50;;;;;;5077973;28;20204;-89
2022/01/16 12:20:12;;;;;;;47.05;24.45;;;7.30;80.40;;;;;;5057588;28;20579;-88
2022/01/16 12:22:48;;;;;;;49.25;22.30;;;7.50;79.50;;;;;;5055396;28;20187;-89
2022/01/16 12:25:23;;;;;;;48.58;23.63;;;7.50;79.00;;;;;;5056328;28;20245;-89
2022/01/16 12:27:50;;;;;;;48.80;21.90;;;7.50;78.70;;;;;;5050931;28;20210;-89
2022/01/16 12:30:26;;;;;;;41.97;21.88;;;7.30;78.90;;;;;;5050700;28;20174;-88
2022/01/16 12:33:03;;;;;;;43.42;21.73;;;7.20;79.00;;;;;;5047350;28;20218;-88
2022/01/16 12:35:50;;;;;;;52.33;25.27;;;7.00;79.50;;;;;;5067330;28;20658;-89
2022/01/16 12:38:22;;;;;;;47.25;22.52;;;7.00;79.50;;;;;;5048156;28;20174;-89
2022/01/16 12:41:08;;;;;;;55.20;23.10;;;7.00;79.70;;;;;;5052257;28;20222;-88
2022/01/16 12:43:48;;;;;;;54.88;21.77;;;7.20;80.00;;;;;;5046930;28;20197;-89
2022/01/16 12:46:17;;;;;;;47.88;21.73;;;7.20;80.50;;;;;;5045758;28;20196;-89
2022/01/16 12:48:45;;;;;;;54.67;22.67;;;7.30;79.70;;;;;;5054006;28;20176;-89
2022/01/16 12:51:13;;;;;;;48.70;23.85;;;7.10;79.60;;;;;;5054615;28;20173;-89
2022/01/16 12:53:53;;;;;;;49.28;21.90;;;7.30;79.80;;;;;;5051113;28;20207;-89
2022/01/16 12:56:27;;;;;;;48.05;23.73;;;7.40;79.10;;;;;;5054702;28;20204;-88
2022/01/16 12:58:56;;;;;;;47.40;22.58;;;7.40;78.80;;;;;;5080060;28;20171;-88
2022/01/16 13:01:24;;;;;;;49.53;23.73;;;7.40;78.70;;;;;;5064696;28;20181;-87
2022/01/16 13:03:49;;;;;;;45.90;23.27;;;7.20;78.90;;;;;;5051767;28;20173;-87
2022/01/16 13:06:15;;;;;;;47.50;23.00;;;7.00;79.40;;;;;;5048926;28;20192;-88
2022/01/16 13:09:03;;;;;;;57.97;27.03;;;7.10;79.70;;;;;;5049090;28;20276;-88
2022/01/16 13:11:41;;;;;;;51.08;24.40;;;7.00;79.80;;;;;;5069472;28;20244;-88
2022/01/16 13:14:09;;;;;;;55.00;23.20;;;7.00;80.10;;;;;;5072235;28;20180;-88
2022/01/16 13:16:40;;;;;;;57.22;24.95;;;6.90;80.50;;;;;;5066227;28;20267;-88
2022/01/16 13:19:15;;;;;;;56.58;25.88;;;7.00;80.50;;;;;;5046027;28;20783;-88
2022/01/16 13:22:05;;;;;;;52.17;26.27;;;6.90;80.50;;;;;;5048944;28;20172;-88
2022/01/16 13:25:00;;;;;;;59.00;24.67;;;7.10;80.70;;;;;;5064806;28;20165;-88
2022/01/16 13:27:44;;;;;;;54.88;26.83;;;7.20;79.90;;;;;;5053218;28;20718;-86
2022/01/16 13:30:23;;;;;;;45.90;22.40;;;7.10;79.80;;;;;;5064626;28;20553;-86
2022/01/16 13:32:49;;;;;;;63.30;26.55;;;7.10;80.10;;;;;;5049603;28;20276;-87